Time;durP1;ratioP1;P1;durP2;ratioP2;P2;SDS_P1;SDS_P2;PMS_P1;PMS_P2;Temp;Humidity;BMP_temperature;BMP_pressure;BME280_temperature;BME280_humidity;BME280_pressure;Samples;Min_cycle;Max_cycle;Signal;HPM_P1;HPM_P2
2022/12/26 00:01:54;;;;;;;6.45;4.93;;;;;;;11.19;100.00;100153.47;5081407;28;20079;-71
2022/12/26 00:04:22;;;;;;;6.35;4.68;;;;;;;11.19;100.00;100136.72;5083432;28;20071;-72
2022/12/26 00:07:08;;;;;;;6.80;4.57;;;;;;;11.27;100.00;100142.50;5076326;28;20687;-71
2022/12/26 00:09:35;;;;;;;8.00;4.88;;;;;;;11.16;100.00;100127.16;5084835;28;20048;-71
2022/12/26 00:12:01;;;;;;;7.43;4.70;;;;;;;11.29;100.00;100142.41;5088906;28;20036;-72
2022/12/26 00:14:28;;;;;;;8.88;4.78;;;;;;;11.30;100.00;100138.81;5081217;28;20117;-71
2022/12/26 00:16:54;;;;;;;8.18;4.97;;;;;;;11.28;100.00;100130.94;5084730;28;20044;-72
2022/12/26 00:19:21;;;;;;;6.43;4.82;;;;;;;11.21;100.00;100126.91;5085546;28;20040;-72
2022/12/26 00:21:47;;;;;;;5.85;4.35;;;;;;;11.23;100.00;100131.19;5087408;28;20048;-71
2022/12/26 00:24:14;;;;;;;8.23;4.70;;;;;;;11.22;100.00;100136.56;5071278;28;20044;-71
2022/12/26 00:26:41;;;;;;;6.25;4.38;;;;;;;11.23;100.00;100144.44;5067263;28;20052;-71
2022/12/26 00:29:07;;;;;;;6.95;4.90;;;;;;;11.06;100.00;100110.03;5069520;28;20052;-71
2022/12/26 00:31:34;;;;;;;8.13;5.32;;;;;;;11.18;100.00;100117.31;5065706;28;20050;-71
2022/12/26 00:34:04;;;;;;;4.57;3.90;;;;;;;11.16;100.00;100118.38;5067456;28;20052;-71
2022/12/26 00:36:32;;;;;;;5.60;4.43;;;;;;;11.24;100.00;100116.13;5068925;28;20056;-71
2022/12/26 00:39:00;;;;;;;5.82;4.25;;;;;;;11.21;100.00;100126.91;5071577;28;20048;-73
2022/12/26 00:41:28;;;;;;;6.57;4.78;;;;;;;11.19;100.00;100128.78;5070812;28;20098;-71
2022/12/26 00:43:55;;;;;;;7.80;4.50;;;;;;;11.09;100.00;100111.66;5067268;28;20048;-71
2022/12/26 00:46:22;;;;;;;6.78;5.00;;;;;;;11.11;100.00;100118.59;5066853;28;20044;-71
2022/12/26 00:48:48;;;;;;;7.72;4.22;;;;;;;11.17;100.00;100115.63;5068558;28;20071;-71
2022/12/26 00:51:15;;;;;;;8.18;4.75;;;;;;;11.07;100.00;100110.88;5071410;28;20052;-71
2022/12/26 00:53:42;;;;;;;7.20;4.22;;;;;;;11.15;100.00;100141.34;5067619;28;20207;-71
2022/12/26 00:56:09;;;;;;;6.05;4.25;;;;;;;11.15;100.00;100135.19;5073434;28;20093;-71
2022/12/26 00:58:36;;;;;;;4.85;4.22;;;;;;;11.15;100.00;100129.91;5068294;28;20056;-73
2022/12/26 01:01:09;;;;;;;6.30;4.40;;;;;;;11.11;100.00;100131.00;5069336;28;20051;-72
2022/12/26 01:03:36;;;;;;;7.95;4.20;;;;;;;11.06;100.00;100130.38;5066405;28;20048;-72
2022/12/26 01:06:03;;;;;;;7.45;4.65;;;;;;;10.97;100.00;100097.28;5076769;28;20040;-72
2022/12/26 01:08:30;;;;;;;7.32;4.07;;;;;;;11.07;100.00;100126.78;5069549;28;20074;-71
2022/12/26 01:10:57;;;;;;;6.40;4.13;;;;;;;11.04;100.00;100129.59;5075419;28;20042;-71
2022/12/26 01:13:23;;;;;;;7.95;4.68;;;;;;;11.07;100.00;100140.03;5068673;28;20489;-71
2022/12/26 01:15:52;;;;;;;6.80;4.20;;;;;;;11.07;100.00;100154.13;5078837;28;20066;-71
2022/12/26 01:18:20;;;;;;;5.93;4.30;;;;;;;11.08;100.00;100149.69;5072785;28;20048;-72
2022/12/26 01:20:47;;;;;;;6.10;4.10;;;;;;;11.09;100.00;100146.13;5065206;28;20672;-72
2022/12/26 01:23:15;;;;;;;5.95;4.15;;;;;;;11.11;100.00;100149.53;5072883;28;20542;-71
2022/12/26 01:25:42;;;;;;;7.63;4.20;;;;;;;11.16;100.00;100152.81;5072289;28;20047;-71
2022/12/26 01:28:28;;;;;;;5.15;3.85;;;;;;;11.21;100.00;100156.06;5082042;28;20381;-71
2022/12/26 01:30:59;;;;;;;9.85;4.18;;;;;;;11.00;100.00;100120.13;5077969;28;20047;-72
2022/12/26 01:33:25;;;;;;;;;;;;;;;11.26;100.00;100148.72;5072620;28;20043;-71
2022/12/26 01:35:52;;;;;;;5.13;3.47;;;;;;;11.28;100.00;100133.59;5081034;28;19923;-72
2022/12/26 01:38:20;;;;;;;5.78;3.55;;;;;;;11.29;100.00;100127.34;5079037;28;20074;-72
2022/12/26 01:40:48;;;;;;;5.82;3.45;;;;;;;11.36;100.00;100146.44;5084313;28;20472;-71
2022/12/26 01:43:15;;;;;;;5.45;3.72;;;;;;;11.34;100.00;100151.81;5080147;28;20484;-71
2022/12/26 01:45:49;;;;;;;7.13;3.80;;;;;;;11.21;100.00;100135.72;5081972;28;20055;-70
2022/12/26 01:48:32;;;;;;;7.57;3.90;;;;;;;11.37;100.00;100172.00;5073673;28;20507;-71
2022/12/26 01:51:04;;;;;;;4.38;3.50;;;;;;;11.40;100.00;100169.19;5086945;28;20547;-72
2022/12/26 01:53:47;;;;;;;8.30;4.10;;;;;;;11.40;100.00;100161.22;5085423;28;20408;-70
2022/12/26 01:56:29;;;;;;;5.25;3.72;;;;;;;11.44;100.00;100161.00;5079345;28;20054;-71
2022/12/26 01:59:05;;;;;;;4.88;3.70;;;;;;;11.45;100.00;100160.06;5079848;28;20416;-71
2022/12/26 02:01:36;;;;;;;4.60;3.72;;;;;;;11.43;100.00;100167.22;5083144;28;20404;-72
2022/12/26 02:06:53;;;;;;;9.07;3.95;;;;;;;11.26;100.00;100154.03;5075880;28;20516;-71
2022/12/26 02:09:20;;;;;;;5.95;3.85;;;;;;;11.36;100.00;100170.28;5085844;28;20050;-71
2022/12/26 02:11:53;;;;;;;6.28;3.60;;;;;;;11.39;100.00;100167.47;5078267;28;20037;-72
2022/12/26 02:14:40;;;;;;;7.18;3.83;;;;;;;11.39;100.00;100183.38;5078168;28;20044;-72
2022/12/26 02:17:08;;;;;;;4.80;3.55;;;;;;;11.34;100.00;100177.47;5083536;28;20499;-72
2022/12/26 02:20:00;;;;;;;7.55;3.80;;;;;;;11.27;100.00;100152.22;5075895;28;20066;-72
2022/12/26 02:22:49;;;;;;;4.43;3.40;;;;;;;11.40;100.00;100185.94;5080338;28;20044;-72
2022/12/26 02:25:50;;;;;;;4.47;3.33;;;;;;;11.39;100.00;100197.50;5070401;28;20040;-70
2022/12/26 02:28:42;;;;;;;6.72;3.50;;;;;;;11.42;100.00;100192.03;5070049;28;20514;-70
2022/12/26 02:31:30;;;;;;;7.13;3.70;;;;;;;11.43;100.00;100195.53;5064465;28;20052;-72
2022/12/26 02:34:39;;;;;;;3.92;3.28;;;;;;;11.43;100.00;100195.53;5067949;28;20071;-72
2022/12/26 02:37:17;;;;;;;7.22;3.33;;;;;;;11.44;100.00;100200.75;5065883;28;20140;-73
2022/12/26 02:40:02;;;;;;;6.18;3.80;;;;;;;11.29;100.00;100168.91;5068053;28;20064;-72
2022/12/26 02:42:57;;;;;;;6.45;3.83;;;;;;;11.41;100.00;100182.38;5065945;28;20510;-72
2022/12/26 02:48:38;;;;;;;7.00;3.38;;;;;;;11.40;100.00;100193.91;5088661;28;20407;-71
2022/12/26 03:14:46;;;;;;;7.23;3.30;;;;;;;11.39;100.00;100181.59;5081437;28;20131;-71
2022/12/26 03:17:30;;;;;;;7.88;3.58;;;;;;;11.40;100.00;100182.44;5087646;28;20042;-72
2022/12/26 03:20:25;;;;;;;6.05;3.20;;;;;;;11.43;100.00;100198.19;5065581;28;20136;-71
2022/12/26 03:22:56;;;;;;;4.00;3.03;;;;;;;11.44;100.00;100194.59;5066569;28;20135;-71
2022/12/26 03:28:27;;;;;;;5.70;3.22;;;;;;;11.42;100.00;100157.56;5078314;28;20166;-71
2022/12/26 03:30:57;;;;;;;6.15;2.88;;;;;;;11.52;100.00;100185.28;5070780;28;20044;-70
2022/12/26 03:36:39;;;;;;;4.70;3.33;;;;;;;11.55;100.00;100187.78;5075072;28;20040;-70
2022/12/26 03:39:11;;;;;;;5.60;3.00;;;;;;;11.57;100.00;100187.69;5075369;28;20049;-72
2022/12/26 04:19:49;;;;;;;5.45;3.22;;;;;;;11.54;100.00;100164.00;5082828;28;20059;-71
2022/12/26 04:46:01;;;;;;;4.85;3.13;;;;;;;11.53;100.00;100200.25;5079018;28;20044;-71
2022/12/26 04:51:14;;;;;;;5.72;3.15;;;;;;;11.59;100.00;100204.38;5076990;28;20147;-71
2022/12/26 04:53:40;;;;;;;5.30;3.30;;;;;;;11.57;100.00;100203.59;5080797;28;20504;-72
2022/12/26 04:56:09;;;;;;;5.78;3.22;;;;;;;11.55;100.00;100193.09;5078709;28;20059;-72
2022/12/26 04:58:36;;;;;;;6.82;3.17;;;;;;;11.53;100.00;100200.25;5081310;28;20051;-72
2022/12/26 05:09:34;;;;;;;3.53;2.85;;;;;;;11.49;100.00;100188.09;5084552;28;20514;-72
2022/12/26 05:12:02;;;;;;;5.80;2.90;;;;;;;11.47;100.00;100167.94;5080791;28;20161;-72
2022/12/26 05:14:30;;;;;;;6.43;3.05;;;;;;;11.46;100.00;100160.91;5078413;28;20415;-72
2022/12/26 05:30:56;;;;;;;5.15;2.80;;;;;;;11.49;100.00;100188.09;5067722;28;20059;-72
2022/12/26 05:36:09;;;;;;;4.75;2.83;;;;;;;11.59;100.00;100186.69;5080038;28;20055;-72
2022/12/26 05:38:36;;;;;;;4.38;2.75;;;;;;;11.59;100.00;100176.06;5067324;28;20434;-71
2022/12/26 05:41:03;;;;;;;5.50;2.72;;;;;;;11.65;100.00;100177.50;5068125;28;20044;-72
2022/12/26 05:43:29;;;;;;;4.13;2.53;;;;;;;11.68;100.00;100184.44;5071308;28;20412;-72
2022/12/26 05:45:56;;;;;;;4.75;2.80;;;;;;;11.70;100.00;100193.19;5075457;28;20044;-71
2022/12/26 05:48:22;;;;;;;4.30;2.63;;;;;;;11.70;100.00;100191.38;5079104;28;20058;-72
2022/12/26 05:50:49;;;;;;;4.82;2.90;;;;;;;11.72;100.00;100197.47;5073757;28;20083;-72
2022/12/26 05:53:15;;;;;;;4.57;2.50;;;;;;;11.62;100.00;100176.84;5075637;28;20682;-72
2022/12/26 05:55:42;;;;;;;6.50;2.83;;;;;;;11.77;100.00;100197.25;5063602;28;20778;-72
2022/12/26 05:58:09;;;;;;;4.93;2.42;;;;;;;11.78;100.00;100212.25;5066873;28;20055;-71
2022/12/26 06:00:35;;;;;;;6.05;2.80;;;;;;;11.75;100.00;100204.41;5068024;28;20063;-71
2022/12/26 06:03:02;;;;;;;4.88;2.60;;;;;;;11.82;100.00;100206.66;5068949;28;20059;-73
2022/12/26 06:05:29;;;;;;;5.07;2.92;;;;;;;11.85;100.00;100200.34;5071499;28;20051;-71
2022/12/26 06:07:55;;;;;;;4.80;2.63;;;;;;;11.91;100.00;100189.38;5071632;28;20127;-71
2022/12/26 06:10:22;;;;;;;5.18;2.60;;;;;;;11.89;100.00;100183.31;5065623;28;20053;-73
2022/12/26 06:12:48;;;;;;;4.85;2.63;;;;;;;11.94;100.00;100197.19;5067600;28;20167;-71
2022/12/26 06:15:15;;;;;;;5.20;3.15;;;;;;;11.96;100.00;100197.97;5077240;28;20048;-71
2022/12/26 06:17:42;;;;;;;3.92;2.40;;;;;;;11.97;100.00;100204.94;5068380;28;20568;-71
2022/12/26 06:20:08;;;;;;;4.05;2.90;;;;;;;11.98;100.00;100211.97;5064229;28;20470;-70
2022/12/26 06:22:36;;;;;;;6.00;3.10;;;;;;;11.97;100.00;100212.91;5067463;28;20447;-71
2022/12/26 06:25:03;;;;;;;3.58;2.50;;;;;;;12.00;100.00;100209.25;5067861;28;20499;-71
2022/12/26 06:27:29;;;;;;;7.07;3.00;;;;;;;11.92;100.00;100185.78;5070152;28;20052;-71
2022/12/26 06:29:56;;;;;;;6.55;2.97;;;;;;;12.01;100.00;100210.94;5068007;28;20048;-72
2022/12/26 06:32:22;;;;;;;5.80;2.65;;;;;;;12.02;100.00;100210.88;5066257;28;20040;-71
2022/12/26 06:34:49;;;;;;;4.43;2.67;;;;;;;11.97;100.00;100220.00;5064447;28;20375;-74
2022/12/26 06:37:16;;;;;;;5.28;2.88;;;;;;;11.97;100.00;100222.66;5065032;28;20051;-70
2022/12/26 06:39:42;;;;;;;5.93;2.97;;;;;;;11.94;100.00;100226.38;5066023;28;20044;-71
2022/12/26 06:42:09;;;;;;;4.78;2.88;;;;;;;11.90;100.00;100222.16;5070227;28;20148;-71
2022/12/26 06:44:36;;;;;;;6.10;2.83;;;;;;;11.96;100.00;100218.34;5068286;28;20044;-71
2022/12/26 06:47:03;;;;;;;5.05;3.10;;;;;;;11.94;100.00;100205.16;5066993;28;20669;-71
2022/12/26 06:49:29;;;;;;;4.85;2.78;;;;;;;12.00;100.00;100215.41;5066054;28;20084;-75
2022/12/26 06:51:58;;;;;;;4.50;2.90;;;;;;;11.98;100.00;100211.13;5066222;28;20053;-71
2022/12/26 06:54:25;;;;;;;8.13;2.95;;;;;;;11.98;100.00;100219.94;5066140;28;20041;-72
2022/12/26 06:56:51;;;;;;;6.47;2.92;;;;;;;12.01;100.00;100216.25;5068930;28;20046;-71
2022/12/26 06:59:18;;;;;;;5.75;2.78;;;;;;;12.00;100.00;100211.88;5066661;28;20079;-75
2022/12/26 07:01:44;;;;;;;4.68;2.55;;;;;;;11.98;100.00;100209.31;5068319;28;20048;-71
2022/12/26 07:04:12;;;;;;;5.43;3.03;;;;;;;11.95;100.00;100217.47;5068505;28;20037;-70
2022/12/26 07:06:39;;;;;;;6.85;3.05;;;;;;;11.79;100.00;100190.94;5068401;28;20048;-71
2022/12/26 07:09:13;;;;;;;6.97;2.90;;;;;;;11.93;100.00;100225.50;5070178;28;20059;-72
2022/12/26 07:11:44;;;;;;;4.88;3.00;;;;;;;11.92;100.00;100207.88;5075842;28;20136;-73
2022/12/26 07:14:12;;;;;;;5.13;2.50;;;;;;;11.98;100.00;100211.13;5086041;28;20048;-71
2022/12/26 07:16:40;;;;;;;4.93;2.95;;;;;;;11.85;100.00;100189.72;5075146;28;20443;-70
2022/12/26 07:19:09;;;;;;;3.03;2.38;;;;;;;11.93;100.00;100206.09;5086839;28;20352;-71
2022/12/26 07:21:36;;;;;;;4.93;3.13;;;;;;;11.94;100.00;100210.44;5071141;28;20048;-71
2022/12/26 07:24:16;;;;;;;5.63;2.88;;;;;;;11.83;100.00;100199.56;5070318;28;20056;-71
2022/12/26 07:26:44;;;;;;;7.07;2.63;;;;;;;11.99;100.00;100221.66;5066943;28;20122;-73
2022/12/26 07:29:12;;;;;;;5.45;2.85;;;;;;;11.99;100.00;100239.38;5068593;28;20036;-71
2022/12/26 07:31:39;;;;;;;4.45;2.58;;;;;;;11.92;100.00;100237.06;5066952;28;20046;-72
2022/12/26 07:34:06;;;;;;;4.85;2.72;;;;;;;11.79;100.00;100219.25;5068403;28;20054;-71
2022/12/26 07:36:33;;;;;;;5.43;3.08;;;;;;;11.93;100.00;100243.22;5066352;28;20076;-72
2022/12/26 07:39:00;;;;;;;6.72;2.90;;;;;;;11.98;100.00;100258.88;5063595;28;20432;-71
2022/12/26 07:44:13;;;;;;;7.97;3.17;;;;;;;11.88;100.00;100266.50;5067102;28;20055;-71
2022/12/26 07:46:40;;;;;;;6.72;3.20;;;;;;;11.69;100.00;100245.38;5065335;28;20059;-72
2022/12/26 07:49:07;;;;;;;5.57;3.20;;;;;;;11.53;100.00;100268.34;5070786;28;20595;-72
2022/12/26 07:51:34;;;;;;;5.63;3.45;;;;;;;11.16;100.00;100264.13;5075026;28;20047;-71
2022/12/26 07:54:01;;;;;;;7.05;4.07;;;;;;;10.95;100.00;100270.50;5079810;28;20044;-72
2022/12/26 07:56:34;;;;;;;7.50;3.30;;;;;;;10.82;100.00;100260.53;5083901;28;20063;-72
2022/12/26 07:59:01;;;;;;;4.00;3.10;;;;;;;10.82;100.00;100286.16;5085451;27;20048;-72
2022/12/26 08:01:28;;;;;;;7.93;3.40;;;;;;;10.70;100.00;100279.69;5076295;28;20043;-71
2022/12/26 08:03:55;;;;;;;5.13;3.13;;;;;;;10.65;100.00;100273.75;5081311;28;20510;-71
2022/12/26 08:06:22;;;;;;;8.05;3.58;;;;;;;10.65;100.00;100284.34;5089815;28;20129;-71
2022/12/26 08:08:50;;;;;;;5.90;3.63;;;;;;;10.59;100.00;100284.63;5084037;28;20052;-69
2022/12/26 08:11:21;;;;;;;6.90;3.83;;;;;;;10.56;100.00;100282.13;5077187;28;20483;-70
2022/12/26 08:13:49;;;;;;;6.63;3.92;;;;;;;10.50;100.00;100280.66;5085306;28;20040;-72
2022/12/26 08:16:16;;;;;;;8.00;4.07;;;;;;;10.49;100.00;100283.38;5082770;28;20052;-71
2022/12/26 08:18:43;;;;;;;5.93;4.00;;;;;;;10.45;100.00;100276.50;5084646;28;20048;-71
2022/12/26 08:21:11;;;;;;;8.02;4.10;;;;;;;10.40;100.00;100266.13;5090453;28;20036;-71
2022/12/26 08:23:38;;;;;;;5.38;4.25;;;;;;;10.34;100.00;100252.34;5089149;28;20510;-71
2022/12/26 08:26:10;;;;;;;6.70;4.32;;;;;;;10.37;100.00;100247.78;5067346;28;20040;-70
2022/12/26 08:28:37;;;;;;;5.55;4.07;;;;;;;10.35;100.00;100244.34;5064110;28;20105;-71
2022/12/26 08:31:09;;;;;;;9.23;4.25;;;;;;;10.36;100.00;100248.69;5071764;28;20381;-71
2022/12/26 08:33:35;;;;;;;9.93;4.35;;;;;;;10.40;100.00;100266.13;5074186;28;20068;-69
2022/12/26 08:36:07;;;;;;;7.15;4.10;;;;;;;10.45;100.00;100271.22;5080305;28;20076;-70
2022/12/26 08:38:35;;;;;;;7.93;4.45;;;;;;;10.43;100.00;100252.75;5080871;28;20847;-70
2022/12/26 08:41:02;;;;;;;7.32;3.97;;;;;;;10.30;100.00;100224.31;5085982;28;20404;-71
2022/12/26 08:43:29;;;;;;;6.53;4.03;;;;;;;10.41;100.00;100254.59;5086792;28;20127;-69
2022/12/26 08:46:16;;;;;;;7.75;4.00;;;;;;;10.38;100.00;100261.88;5084445;28;20078;-70
2022/12/26 08:48:43;;;;;;;5.40;3.75;;;;;;;10.45;100.00;100281.78;5077323;28;20059;-71
2022/12/26 08:51:14;;;;;;;9.07;4.15;;;;;;;10.44;100.00;100303.91;5086122;28;20048;-70
2022/12/26 08:53:41;;;;;;;;;;;;;;;10.48;100.00;100303.69;5082280;28;20086;-72
2022/12/26 08:56:12;;;;;;;12.82;4.47;;;;;;;10.28;100.00;100272.00;5087451;28;20338;-70
2022/12/26 08:58:39;;;;;;;7.07;4.00;;;;;;;10.27;100.00;100286.19;5078910;28;20040;-69
2022/12/26 09:01:13;;;;;;;8.13;4.18;;;;;;;10.44;100.00;100322.44;5070270;28;20114;-71
2022/12/26 09:03:40;;;;;;;6.63;3.65;;;;;;;10.43;100.00;100321.56;5071981;28;20091;-70
2022/12/26 09:06:09;;;;;;;8.10;3.97;;;;;;;10.43;100.00;100334.81;5072959;28;20044;-69
2022/12/26 09:08:36;;;;;;;8.55;4.20;;;;;;;10.35;100.00;100322.88;5066974;28;20159;-71
2022/12/26 09:11:05;;;;;;;9.15;4.38;;;;;;;10.40;100.00;100337.59;5069265;28;20048;-71
2022/12/26 09:13:33;;;;;;;8.02;4.28;;;;;;;10.39;100.00;100340.34;5065006;28;20048;-73
2022/12/26 09:16:24;;;;;;;6.10;4.10;;;;;;;10.36;100.00;100336.06;5075804;28;20051;-69
2022/12/26 09:18:57;;;;;;;7.75;4.70;;;;;;;10.43;100.00;100341.91;5080522;28;20573;-72
2022/12/26 09:21:24;;;;;;;6.45;4.35;;;;;;;10.45;100.00;100338.25;5075650;28;20052;-70
2022/12/26 09:23:56;;;;;;;10.02;4.47;;;;;;;10.50;100.00;100352.13;5072078;28;20488;-70
2022/12/26 09:26:23;;;;;;;7.55;4.22;;;;;;;10.46;100.00;100358.50;5067343;28;20052;-70
2022/12/26 09:28:51;;;;;;;6.22;4.00;;;;;;;10.49;100.00;100370.75;5067082;28;20074;-69
2022/12/26 09:31:23;;;;;;;8.23;3.78;;;;;;;10.56;100.00;100374.81;5068609;28;20142;-70
2022/12/26 09:33:52;;;;;;;6.63;3.72;;;;;;;10.56;100.00;100374.81;5070760;28;20059;-70
2022/12/26 09:36:22;;;;;;;6.10;3.78;;;;;;;10.39;100.00;100348.28;5069716;28;20321;-71
2022/12/26 09:38:50;;;;;;;6.03;3.65;;;;;;;10.59;100.00;100371.16;5087537;28;20083;-70
2022/12/26 09:41:47;;;;;;;7.55;3.83;;;;;;;10.65;100.00;100370.88;5066229;28;20052;-70
2022/12/26 09:44:32;;;;;;;6.82;3.60;;;;;;;10.65;100.00;100374.38;5070047;28;20058;-70
2022/12/26 09:47:17;;;;;;;6.35;3.75;;;;;;;10.68;100.00;100358.34;5067944;28;20064;-70
2022/12/26 09:50:17;;;;;;;6.05;3.67;;;;;;;10.70;100.00;100348.56;5064124;28;20052;-70
2022/12/26 09:52:43;;;;;;;4.83;3.40;;;;;;;10.76;100.00;100340.28;5067887;28;20051;-70
2022/12/26 09:55:47;;;;;;;4.72;3.47;;;;;;;10.84;100.00;100345.22;5081362;28;20056;-71
2022/12/26 09:58:50;;;;;;;6.10;3.60;;;;;;;10.93;100.00;100365.09;5079613;28;20468;-73
2022/12/26 10:01:22;;;;;;;6.43;3.58;;;;;;;10.70;100.00;100335.31;5073771;28;20093;-69
2022/12/26 10:03:53;;;;;;;6.55;3.50;;;;;;;10.83;100.00;100368.22;5080737;28;20885;-70
2022/12/26 10:06:21;;;;;;;6.57;3.40;;;;;;;10.79;100.00;100369.28;5092162;28;20067;-68
2022/12/26 10:09:03;;;;;;;5.18;2.97;;;;;;;10.83;100.00;100381.44;5081209;28;20082;-69
2022/12/26 10:11:53;;;;;;;4.50;3.03;;;;;;;10.86;100.00;100380.44;5081933;28;20109;-70
2022/12/26 10:14:48;;;;;;;4.25;2.92;;;;;;;10.60;100.00;100352.56;5078802;28;20048;-70
2022/12/26 10:17:27;;;;;;;6.28;3.15;;;;;;;10.75;100.00;100366.84;5080232;28;20048;-71
2022/12/26 10:19:56;;;;;;;4.30;2.80;;;;;;;10.78;100.00;100354.31;5076027;28;20159;-70
2022/12/26 10:22:45;;;;;;;4.68;2.83;;;;;;;10.81;100.00;100359.47;5082007;28;20067;-70
2022/12/26 10:25:40;;;;;;;5.32;2.80;;;;;;;10.82;100.00;100349.75;5068180;28;20052;-71
2022/12/26 10:28:17;;;;;;;4.30;2.75;;;;;;;10.85;100.00;100354.91;5070300;28;20051;-69
2022/12/26 10:30:45;;;;;;;4.68;2.75;;;;;;;10.84;100.00;100343.44;5067586;28;20503;-71
2022/12/26 10:33:24;;;;;;;3.90;2.70;;;;;;;10.76;100.00;100342.06;5067726;28;20076;-71
2022/12/26 10:35:51;;;;;;;5.70;3.10;;;;;;;10.94;100.00;100380.06;5065741;28;20060;-71
2022/12/26 10:38:32;;;;;;;3.92;2.83;;;;;;;10.87;100.00;100395.38;5060426;28;20503;-70
2022/12/26 10:41:07;;;;;;;6.95;2.60;;;;;;;10.84;100.00;100379.66;5066172;28;20082;-70
2022/12/26 10:43:41;;;;;;;4.43;2.63;;;;;;;10.89;100.00;100381.13;5067145;28;20053;-69
2022/12/26 10:46:32;;;;;;;3.55;2.40;;;;;;;10.90;100.00;100376.69;5066269;28;20046;-69
2022/12/26 10:48:59;;;;;;;3.33;2.40;;;;;;;10.93;100.00;100387.16;5068846;28;20055;-72
2022/12/26 10:51:26;;;;;;;4.65;2.40;;;;;;;10.89;100.00;100397.03;5065007;28;20139;-72
2022/12/26 10:53:53;;;;;;;4.55;1.88;;;;;;;10.89;100.00;100404.97;5066461;28;20051;-70
2022/12/26 10:56:24;;;;;;;3.35;2.00;;;;;;;10.89;100.00;100410.28;5068967;28;20071;-69
2022/12/26 10:59:03;;;;;;;3.38;2.30;;;;;;;10.87;100.00;100385.66;5068892;28;20950;-71
2022/12/26 11:01:36;;;;;;;4.82;2.50;;;;;;;10.96;100.00;100408.22;5072461;28;20551;-70
2022/12/26 11:04:15;;;;;;;4.03;2.03;;;;;;;11.08;100.00;100404.09;5074792;28;20913;-70
2022/12/26 11:06:51;;;;;;;1.98;1.70;;;;;;;11.08;100.00;100402.31;5078754;28;20089;-70
2022/12/26 11:09:36;;;;;;;;;;;;;;;11.04;100.00;100405.16;5070644;28;20045;-71
2022/12/26 11:12:04;;;;;;;2.92;1.95;;;;;;;10.86;100.00;100383.94;5073317;28;19940;-72
2022/12/26 11:14:36;;;;;;;4.40;2.00;;;;;;;10.92;100.00;100381.94;5072065;28;20049;-70
2022/12/26 11:17:06;;;;;;;3.60;1.70;;;;;;;11.07;100.00;100399.72;5075389;28;20044;-70
2022/12/26 11:19:45;;;;;;;4.55;2.10;;;;;;;11.13;100.00;100397.66;5077570;28;20058;-71
2022/12/26 11:22:20;;;;;;;3.72;2.25;;;;;;;11.15;100.00;100394.94;5077966;28;20051;-70
2022/12/26 11:25:12;;;;;;;5.28;2.30;;;;;;;11.23;100.00;100409.50;5071236;28;20076;-71
2022/12/26 11:27:43;;;;;;;3.75;1.80;;;;;;;11.22;100.00;100410.44;5078275;28;20044;-72
2022/12/26 11:30:12;;;;;;;2.92;1.70;;;;;;;11.01;100.00;100376.19;5087976;28;20081;-71
2022/12/26 11:32:46;;;;;;;2.92;1.60;;;;;;;11.16;100.00;100410.75;5077590;28;20044;-70
2022/12/26 11:35:22;;;;;;;2.45;1.85;;;;;;;11.16;100.00;100417.84;5073397;28;20459;-72
2022/12/26 11:37:55;;;;;;;3.45;1.70;;;;;;;11.11;100.00;100409.25;5081418;28;20048;-70
2022/12/26 11:40:28;;;;;;;2.10;1.42;;;;;;;11.18;100.00;100413.31;5072830;28;20040;-70
2022/12/26 11:42:57;;;;;;;2.55;1.38;;;;;;;11.05;100.00;100397.16;5075269;28;20040;-70
2022/12/26 11:45:27;;;;;;;2.22;1.30;;;;;;;11.14;100.00;100415.28;5077709;28;20081;-70
2022/12/26 11:48:01;;;;;;;3.05;1.52;;;;;;;11.18;100.00;100416.81;5082262;28;20485;-71
2022/12/26 11:50:29;;;;;;;1.63;1.38;;;;;;;11.15;100.00;100410.81;5087307;28;20119;-71
2022/12/26 11:52:56;;;;;;;1.52;1.15;;;;;;;11.11;100.00;100409.25;5077783;28;20052;-70
2022/12/26 11:55:36;;;;;;;3.35;1.50;;;;;;;10.97;100.00;100379.91;5087904;28;20052;-71
2022/12/26 11:58:05;;;;;;;2.08;1.50;;;;;;;11.11;100.00;100401.31;5084164;28;20040;-72
2022/12/26 12:00:34;;;;;;;1.50;1.20;;;;;;;11.17;100.00;100399.22;5082074;28;20140;-71
2022/12/26 12:03:08;;;;;;;2.08;1.30;;;;;;;11.21;100.00;100394.59;5086150;28;20404;-71
2022/12/26 12:06:26;;;;;;;2.05;1.23;;;;;;;11.25;100.00;100394.38;5088109;28;20044;-72
2022/12/26 12:09:20;;;;;;;2.05;1.52;;;;;;;11.30;100.00;100403.91;5069883;28;20062;-72
2022/12/26 12:12:11;;;;;;;3.28;1.60;;;;;;;11.27;100.00;100399.63;5088508;28;20084;-71
2022/12/26 12:15:11;;;;;;;1.40;1.30;;;;;;;11.18;100.00;100389.44;5092016;28;20044;-71
2022/12/26 12:18:08;;;;;;;2.55;1.50;;;;;;;11.23;100.00;100387.44;5085868;28;20139;-72
2022/12/26 12:20:55;;;;;;;2.80;1.40;;;;;;;11.25;100.00;100385.56;5088954;28;20676;-72
2022/12/26 12:23:42;;;;;;;2.83;1.55;;;;;;;11.24;100.00;100374.09;5093872;28;20047;-71
2022/12/26 12:26:15;;;;;;;2.78;1.25;;;;;;;11.30;100.00;100372.97;5078110;28;20080;-72
2022/12/26 12:29:02;;;;;;;2.78;1.60;;;;;;;11.29;100.00;100365.94;5070830;28;20060;-71
2022/12/26 12:31:51;;;;;;;6.85;1.75;;;;;;;11.30;100.00;100365.00;5080093;28;20040;-71
2022/12/26 12:34:54;;;;;;;2.10;1.63;;;;;;;11.30;100.00;100359.69;5075991;28;20506;-72
2022/12/26 12:37:35;;;;;;;3.70;1.88;;;;;;;11.39;100.00;100358.38;5096261;28;20139;-71
2022/12/26 12:40:27;;;;;;;2.38;1.60;;;;;;;11.37;100.00;100334.56;5073396;28;20405;-70
2022/12/26 12:43:01;;;;;;;4.43;1.67;;;;;;;11.38;100.00;100323.03;5073615;28;20041;-72
2022/12/26 12:45:59;;;;;;;2.88;1.95;;;;;;;11.57;100.00;100350.31;5074958;28;20136;-71
2022/12/26 12:48:42;;;;;;;3.67;1.70;;;;;;;11.64;100.00;100350.03;5074320;28;20699;-71
2022/12/26 12:51:23;;;;;;;2.22;1.63;;;;;;;11.51;100.00;100347.13;5079176;28;20105;-70
2022/12/26 12:54:10;;;;;;;4.60;1.88;;;;;;;11.51;100.00;100355.06;5080641;28;20069;-71
2022/12/26 12:57:14;;;;;;;3.95;1.80;;;;;;;11.43;100.00;100357.28;5074159;28;20041;-71
2022/12/26 13:00:02;;;;;;;3.58;1.98;;;;;;;11.11;100.00;100327.09;5071436;28;20056;-71
2022/12/26 13:02:37;;;;;;;5.05;2.10;;;;;;;11.27;100.00;100354.56;5078234;28;20056;-72
2022/12/26 13:05:19;;;;;;;3.60;1.83;;;;;;;11.24;100.00;100336.13;5079959;28;20754;-72
2022/12/26 13:07:52;;;;;;;5.45;2.00;;;;;;;11.30;100.00;100341.16;5083237;28;20052;-71
2022/12/26 13:10:29;;;;;;;3.97;2.20;;;;;;;11.27;100.00;100341.28;5085710;28;20055;-72
2022/12/26 13:12:58;;;;;;;3.33;2.10;;;;;;;11.26;100.00;100331.63;5077288;28;20052;-71
2022/12/26 13:15:37;;;;;;;4.18;2.33;;;;;;;11.30;100.00;100337.63;5082179;28;20450;-71
2022/12/26 13:18:16;;;;;;;2.28;1.80;;;;;;;11.31;100.00;100328.75;5080544;28;20051;-71
2022/12/26 13:20:46;;;;;;;3.35;1.70;;;;;;;11.27;100.00;100321.88;5079234;28;20407;-71
2022/12/26 13:24:23;;;;;;;3.05;1.90;;;;;;;11.33;100.00;100333.03;5084398;28;20056;-71
2022/12/26 13:26:59;;;;;;;3.88;1.85;;;;;;;11.27;100.00;100322.75;5066264;28;20099;-71
2022/12/26 13:29:39;;;;;;;3.72;1.88;;;;;;;11.34;100.00;100331.22;5090220;28;20040;-71
2022/12/26 13:32:25;;;;;;;2.95;1.90;;;;;;;11.35;100.00;100331.16;5083345;28;20115;-72
2022/12/26 13:34:54;;;;;;;2.70;1.98;;;;;;;11.40;100.00;100337.06;5085276;28;20128;-71
2022/12/26 13:37:36;;;;;;;3.13;1.63;;;;;;;11.36;100.00;100298.41;5085160;28;20408;-72
2022/12/26 13:40:16;;;;;;;3.30;1.60;;;;;;;11.56;100.00;100319.44;5080899;28;20050;-71
2022/12/26 13:45:36;;;;;;;4.55;1.40;;;;;;;11.52;100.00;100312.56;5076620;28;20404;-72
2022/12/26 13:48:15;;;;;;;3.07;1.67;;;;;;;11.48;100.00;100319.00;5083660;28;20063;-70
2022/12/26 13:50:53;;;;;;;2.95;1.35;;;;;;;11.38;100.00;100300.97;5085290;28;20055;-71
2022/12/26 13:53:25;;;;;;;1.83;1.30;;;;;;;11.41;100.00;100299.03;5085164;28;20352;-71
2022/12/26 13:55:52;;;;;;;1.73;1.20;;;;;;;11.41;100.00;100293.72;5086587;28;20056;-72
2022/12/26 13:58:28;;;;;;;3.65;1.33;;;;;;;11.38;100.00;100306.28;5089835;28;20052;-71